createdAt,value
2022-12-22T00:00:32.841Z,100570.03
2022-12-22T00:03:32.523Z,100570.88
2022-12-22T00:06:28.185Z,100560.44
2022-12-22T00:09:18.313Z,100564.78
2022-12-22T00:12:08.647Z,100557.84
2022-12-22T00:14:59.286Z,100558.72
2022-12-22T00:17:50.228Z,100548.31
2022-12-22T00:20:40.792Z,100547.47
2022-12-22T00:23:32.377Z,100551.78
2022-12-22T00:26:23.162Z,100544.84
2022-12-22T00:29:13.436Z,100547.47
2022-12-22T00:32:03.967Z,100551.81
2022-12-22T00:34:59.895Z,100545.72
2022-12-22T00:37:56.141Z,100541.38
2022-12-22T00:40:47.730Z,100538.78
2022-12-22T00:43:38.400Z,100536.19
2022-12-22T00:46:31.905Z,100532.72
2022-12-22T00:49:22.234Z,100531.84
2022-12-22T00:52:12.699Z,100526.63
2022-12-22T00:55:03.067Z,100528.38
2022-12-22T00:57:54.337Z,100530.97
2022-12-22T01:00:47.859Z,100529.25
2022-12-22T01:03:38.159Z,100524.91
2022-12-22T01:06:29.067Z,100524.06
2022-12-22T01:09:19.813Z,100513.66
2022-12-22T01:12:10.150Z,100511.06
2022-12-22T01:15:00.600Z,100509.31
2022-12-22T01:17:51.271Z,100508.44
2022-12-22T01:20:41.605Z,100501.50
2022-12-22T01:23:31.758Z,100500.63
2022-12-22T01:26:22.300Z,100509.31
2022-12-22T01:29:12.715Z,100502.38
2022-12-22T01:32:03.021Z,100499.75
2022-12-22T01:34:54.769Z,100484.16
2022-12-22T01:37:45.127Z,100491.97
2022-12-22T01:40:39.639Z,100494.56
2022-12-22T01:43:46.648Z,100486.75
2022-12-22T01:47:01.928Z,100474.59
2022-12-22T01:50:00.136Z,100477.22
2022-12-22T01:52:54.104Z,100478.94
2022-12-22T01:55:44.848Z,100478.94
2022-12-22T01:58:55.652Z,100472.00
2022-12-22T02:01:49.190Z,100469.41
2022-12-22T02:04:44.472Z,100460.72
2022-12-22T02:08:16.105Z,100455.53
2022-12-22T02:11:48.717Z,100459.00
2022-12-22T02:14:46.691Z,100456.41
2022-12-22T02:17:49.704Z,100457.25
2022-12-22T02:21:06.749Z,100464.19
2022-12-22T02:24:37.078Z,100458.13
2022-12-22T02:27:29.104Z,100455.50
2022-12-22T02:30:25.257Z,100451.19
2022-12-22T02:33:16.240Z,100445.97
2022-12-22T02:36:31.138Z,100435.56
2022-12-22T02:39:50.873Z,100433.81
2022-12-22T02:43:01.936Z,100432.09
2022-12-22T02:46:07.018Z,100421.69
2022-12-22T02:49:10.422Z,100434.72
2022-12-22T02:52:15.460Z,100417.34
2022-12-22T02:55:05.887Z,100412.16
2022-12-22T02:57:56.324Z,100412.13
2022-12-22T03:00:47.343Z,100410.41
2022-12-22T03:03:37.905Z,100409.50
2022-12-22T03:06:28.587Z,100413.00
2022-12-22T03:09:19.155Z,100410.38
2022-12-22T03:12:09.670Z,100403.41
2022-12-22T03:15:00.061Z,100406.00
2022-12-22T03:17:50.458Z,100398.19
2022-12-22T03:20:40.778Z,100392.13
2022-12-22T03:23:31.302Z,100386.94
2022-12-22T03:26:03.277Z,100380.84
2022-12-22T03:28:35.250Z,100385.22
2022-12-22T03:31:07.501Z,100368.72
2022-12-22T03:33:39.750Z,100367.81
2022-12-22T03:36:11.791Z,100366.06
2022-12-22T03:38:43.718Z,100366.88
2022-12-22T03:41:34.061Z,100366.88
2022-12-22T03:44:24.231Z,100368.59
2022-12-22T03:46:56.221Z,100365.16
2022-12-22T03:49:28.354Z,100363.41
2022-12-22T03:52:00.365Z,100361.69
2022-12-22T03:54:32.363Z,100356.47
2022-12-22T03:57:04.295Z,100347.78
2022-12-22T03:59:36.255Z,100336.47
2022-12-22T04:02:08.278Z,100337.34
2022-12-22T04:04:40.381Z,100328.69
2022-12-22T04:07:12.311Z,100338.22
2022-12-22T04:10:04.216Z,100327.78
2022-12-22T04:12:54.516Z,100321.69
2022-12-22T04:15:28.791Z,100315.63
2022-12-22T04:18:00.855Z,100315.59
2022-12-22T04:20:32.854Z,100326.00
2022-12-22T04:23:04.916Z,100322.50
2022-12-22T04:25:36.877Z,100319.09
2022-12-22T04:28:08.803Z,100319.91
2022-12-22T04:30:40.748Z,100325.09
2022-12-22T04:33:12.676Z,100325.97
2022-12-22T04:35:44.722Z,100320.78
2022-12-22T04:38:16.701Z,100322.59
2022-12-22T04:40:48.702Z,100315.66
2022-12-22T04:43:20.638Z,100320.84
2022-12-22T04:45:54.513Z,100317.34
2022-12-22T04:48:28.455Z,100307.78
2022-12-22T04:51:01.241Z,100303.44
2022-12-22T04:53:33.696Z,100299.94
2022-12-22T04:56:08.130Z,100297.31
2022-12-22T04:58:40.900Z,100289.47
2022-12-22T05:01:16.505Z,100292.94
2022-12-22T05:03:48.802Z,100291.22
2022-12-22T05:06:20.761Z,100290.44
2022-12-22T05:08:52.697Z,100284.34
2022-12-22T05:11:24.662Z,100280.00
2022-12-22T05:13:58.691Z,100280.00
2022-12-22T05:16:34.121Z,100282.59
2022-12-22T05:19:06.095Z,100286.91
2022-12-22T05:21:38.137Z,100282.53
2022-12-22T05:24:10.113Z,100283.41
2022-12-22T05:26:42.083Z,100285.09
2022-12-22T05:29:14.008Z,100270.38
2022-12-22T05:31:47.480Z,100278.25
2022-12-22T05:34:19.586Z,100273.88
2022-12-22T05:36:51.525Z,100262.56
2022-12-22T05:39:23.514Z,100272.97
2022-12-22T05:41:55.589Z,100263.41
2022-12-22T05:44:27.565Z,100256.44
2022-12-22T05:46:59.493Z,100252.97
2022-12-22T05:49:31.426Z,100259.06
2022-12-22T05:52:03.476Z,100255.59
2022-12-22T05:54:35.399Z,100249.53
2022-12-22T05:57:07.339Z,100246.97
2022-12-22T05:59:39.251Z,100249.59
2022-12-22T06:02:11.344Z,100242.66
2022-12-22T06:04:43.447Z,100244.44
2022-12-22T06:07:15.414Z,100239.19
2022-12-22T06:09:47.385Z,100240.94
2022-12-22T06:12:19.507Z,100239.19
2022-12-22T06:14:51.800Z,100239.19
2022-12-22T06:17:25.023Z,100237.41
2022-12-22T06:19:56.930Z,100238.28
2022-12-22T06:22:28.881Z,100228.75
2022-12-22T06:25:01.079Z,100236.59
2022-12-22T06:27:33.125Z,100235.75
2022-12-22T06:30:06.758Z,100237.44
2022-12-22T06:32:40.069Z,100241.81
2022-12-22T06:35:12.729Z,100251.38
2022-12-22T06:37:45.311Z,100247.00
2022-12-22T06:40:17.420Z,100241.78
2022-12-22T06:43:09.013Z,100233.97
2022-12-22T06:45:43.614Z,100236.56
2022-12-22T06:48:15.757Z,100245.25
2022-12-22T06:50:47.769Z,100243.53
2022-12-22T06:53:19.738Z,100244.38
2022-12-22T06:55:51.651Z,100249.56
2022-12-22T06:58:23.617Z,100256.53
2022-12-22T07:00:56.779Z,100262.56
2022-12-22T07:03:28.926Z,100265.22
2022-12-22T07:06:00.951Z,100273.00
2022-12-22T07:08:32.996Z,100268.66
2022-12-22T07:11:05.745Z,100268.72
2022-12-22T07:13:37.752Z,100273.88
2022-12-22T07:16:11.505Z,100265.19
2022-12-22T07:18:44.037Z,100266.03
2022-12-22T07:21:16.110Z,100272.09
2022-12-22T07:23:48.103Z,100264.25
2022-12-22T07:26:20.117Z,100264.22
2022-12-22T07:28:52.161Z,100266.88
2022-12-22T07:31:24.217Z,100270.38
2022-12-22T07:33:56.248Z,100271.25
2022-12-22T07:36:28.270Z,100276.47
2022-12-22T07:39:00.198Z,100280.84
2022-12-22T07:41:50.935Z,100280.81
2022-12-22T07:44:23.098Z,100274.78
2022-12-22T07:46:55.274Z,100280.81
2022-12-22T07:49:45.725Z,100282.53
2022-12-22T07:52:17.545Z,100278.22
2022-12-22T07:54:49.747Z,100278.22
2022-12-22T07:57:21.677Z,100283.41
2022-12-22T07:59:54.240Z,100288.66
2022-12-22T08:02:26.262Z,100284.31
2022-12-22T08:04:58.330Z,100282.63
2022-12-22T08:07:32.642Z,100293.84
2022-12-22T08:10:05.365Z,100294.75
2022-12-22T08:12:37.677Z,100294.75
2022-12-22T08:15:10.944Z,100299.06
2022-12-22T08:17:42.898Z,100306.84
2022-12-22T08:20:15.043Z,100309.44
2022-12-22T08:22:47.071Z,100304.19
2022-12-22T08:25:19.080Z,100305.06
2022-12-22T08:27:53.778Z,100304.19
2022-12-22T08:30:25.903Z,100300.69
2022-12-22T08:32:57.915Z,100305.06
2022-12-22T08:35:29.978Z,100298.13
2022-12-22T08:38:02.589Z,100298.94
2022-12-22T08:40:34.935Z,100305.00
2022-12-22T08:43:10.081Z,100305.84
2022-12-22T08:45:42.983Z,100314.50
2022-12-22T08:48:14.904Z,100305.81
2022-12-22T08:50:46.917Z,100312.75
2022-12-22T08:54:02.621Z,100314.50
2022-12-22T08:56:10.916Z,100311.06
2022-12-22T08:58:42.865Z,100317.97
2022-12-22T09:01:21.126Z,100304.94
2022-12-22T09:03:54.808Z,100298.81
2022-12-22T09:06:29.816Z,100302.28
2022-12-22T09:09:08.236Z,100291.78
2022-12-22T09:11:41.420Z,100297.03
2022-12-22T09:14:13.862Z,100292.63
2022-12-22T09:16:46.083Z,100305.66
2022-12-22T09:19:18.344Z,100306.53
2022-12-22T09:21:50.416Z,100300.44
2022-12-22T09:24:22.768Z,100317.78
2022-12-22T09:26:54.809Z,100312.63
2022-12-22T09:29:26.782Z,100318.66
2022-12-22T09:31:58.903Z,100314.41
2022-12-22T09:34:31.076Z,100312.72
2022-12-22T09:37:03.189Z,100300.44
2022-12-22T09:39:35.162Z,100318.75
2022-12-22T09:42:15.973Z,100322.13
2022-12-22T09:44:51.947Z,100320.34
2022-12-22T09:47:40.374Z,100320.31
2022-12-22T09:50:17.807Z,100330.75
2022-12-22T09:52:58.657Z,100329.94
2022-12-22T09:55:39.811Z,100331.63
2022-12-22T09:58:25.923Z,100333.31
2022-12-22T10:01:52.575Z,100340.13
2022-12-22T10:04:49.467Z,100334.94
2022-12-22T10:07:41.086Z,100330.47
2022-12-22T10:10:28.580Z,100329.66
2022-12-22T10:13:04.251Z,100346.13
2022-12-22T10:15:41.071Z,100340.91
2022-12-22T10:18:27.997Z,100346.06
2022-12-22T10:21:08.109Z,100344.22
2022-12-22T10:23:45.127Z,100339.88
2022-12-22T10:26:29.256Z,100347.72
2022-12-22T10:29:06.284Z,100346.84
2022-12-22T10:31:57.905Z,100341.66
2022-12-22T10:34:31.002Z,100347.69
2022-12-22T10:37:05.438Z,100345.06
2022-12-22T10:39:38.802Z,100339.81
2022-12-22T10:42:14.180Z,100345.00
2022-12-22T10:44:48.969Z,100351.94
2022-12-22T10:47:24.574Z,100354.56
2022-12-22T10:52:32.306Z,100349.41
2022-12-22T10:55:29.487Z,100349.41
2022-12-22T10:58:10.588Z,100359.00
2022-12-22T11:00:44.992Z,100358.94
2022-12-22T11:03:31.041Z,100358.06
2022-12-22T11:06:11.812Z,100360.66
2022-12-22T11:08:51.000Z,100361.56
2022-12-22T11:11:37.893Z,100365.06
2022-12-22T11:14:44.978Z,100364.19
2022-12-22T11:18:03.050Z,100373.91
2022-12-22T11:20:46.165Z,100379.13
2022-12-22T11:23:39.051Z,100385.25
2022-12-22T11:26:35.621Z,100395.72
2022-12-22T11:29:44.615Z,100388.00
2022-12-22T11:32:33.320Z,100402.81
2022-12-22T11:35:42.144Z,100406.34
2022-12-22T11:38:50.782Z,100406.41
2022-12-22T11:41:38.803Z,100410.75
2022-12-22T11:44:47.628Z,100408.19
2022-12-22T11:47:47.865Z,100410.00
2022-12-22T11:51:01.294Z,100415.28
2022-12-22T11:54:05.501Z,100420.56
2022-12-22T11:56:50.224Z,100420.59
2022-12-22T11:59:49.717Z,100419.69
2022-12-22T12:02:29.368Z,100422.34
2022-12-22T12:05:45.913Z,100426.69
2022-12-22T12:08:45.207Z,100427.47
2022-12-22T12:11:58.719Z,100425.72
2022-12-22T12:15:15.079Z,100435.25
2022-12-22T12:18:32.354Z,100443.94
2022-12-22T12:21:37.579Z,100445.69
2022-12-22T12:24:22.478Z,100446.53
2022-12-22T12:27:17.906Z,100445.75
2022-12-22T12:33:12.846Z,100444.00
2022-12-22T12:36:13.003Z,100440.53
2022-12-22T12:39:07.364Z,100442.28
2022-12-22T12:42:23.091Z,100449.22
2022-12-22T12:44:55.334Z,100443.13
2022-12-22T12:47:33.214Z,100445.69
2022-12-22T12:50:34.597Z,100450.06
2022-12-22T12:53:11.406Z,100458.72
2022-12-22T12:55:52.901Z,100455.22
2022-12-22T12:58:39.693Z,100457.84
2022-12-22T13:01:19.484Z,100453.53
2022-12-22T13:04:06.796Z,100457.00
2022-12-22T13:06:52.127Z,100465.66
2022-12-22T13:09:49.784Z,100458.75
2022-12-22T13:12:49.282Z,100457.88
2022-12-22T13:15:39.337Z,100454.34
2022-12-22T13:18:34.662Z,100466.50
2022-12-22T13:21:42.465Z,100465.63
2022-12-22T13:24:25.871Z,100460.47
2022-12-22T13:27:06.818Z,100473.50
2022-12-22T13:29:47.872Z,100476.13
2022-12-22T13:32:28.978Z,100476.97
2022-12-22T13:35:31.961Z,100480.50
2022-12-22T13:38:05.376Z,100485.69
2022-12-22T13:40:43.537Z,100484.75
2022-12-22T13:43:18.035Z,100482.13
2022-12-22T13:45:57.151Z,100481.25
2022-12-22T13:48:44.799Z,100482.94
2022-12-22T13:51:34.210Z,100489.91
2022-12-22T13:54:11.046Z,100495.19
2022-12-22T13:56:53.314Z,100502.16
2022-12-22T13:59:30.576Z,100499.56
2022-12-22T14:02:15.880Z,100502.16
2022-12-22T14:05:13.833Z,100494.41
2022-12-22T14:08:09.972Z,100497.91
2022-12-22T14:10:45.727Z,100504.88
2022-12-22T14:13:21.320Z,100503.16
2022-12-22T14:16:02.278Z,100497.94
2022-12-22T14:18:34.342Z,100494.47
2022-12-22T14:21:07.883Z,100497.09
2022-12-22T14:23:42.921Z,100499.72
2022-12-22T14:26:24.023Z,100496.25
2022-12-22T14:28:57.576Z,100504.94
2022-12-22T14:31:29.729Z,100510.16
2022-12-22T14:34:05.485Z,100509.31
2022-12-22T14:36:41.644Z,100504.13
2022-12-22T14:39:32.650Z,100505.84
2022-12-22T14:42:12.138Z,100504.97
2022-12-22T14:44:47.708Z,100502.38
2022-12-22T14:47:25.882Z,100504.13
2022-12-22T14:50:02.731Z,100514.56
2022-12-22T14:53:11.926Z,100517.16
2022-12-22T14:55:50.234Z,100528.44
2022-12-22T14:58:34.218Z,100528.44
2022-12-22T15:01:28.404Z,100537.06
2022-12-22T15:04:16.921Z,100537.94
2022-12-22T15:06:49.855Z,100541.44
2022-12-22T15:10:13.767Z,100537.94
2022-12-22T15:12:19.366Z,100532.75
2022-12-22T15:14:51.545Z,100531.88
2022-12-22T15:17:27.920Z,100535.34
2022-12-22T15:20:00.238Z,100540.53
2022-12-22T15:22:32.498Z,100538.81
2022-12-22T15:25:17.866Z,100540.53
2022-12-22T15:27:50.563Z,100548.34
2022-12-22T15:30:28.905Z,100547.47
2022-12-22T15:33:00.978Z,100544.00
2022-12-22T15:35:35.164Z,100545.75
2022-12-22T15:38:19.244Z,100546.63
2022-12-22T15:40:52.539Z,100547.47
2022-12-22T15:46:18.925Z,100554.44
2022-12-22T15:48:51.142Z,100557.91
2022-12-22T15:51:28.209Z,100552.69
2022-12-22T15:54:00.823Z,100555.28
2022-12-22T15:56:33.705Z,100558.75
2022-12-22T15:59:05.999Z,100548.34
2022-12-22T16:01:38.051Z,100553.59
2022-12-22T16:04:10.506Z,100553.59
2022-12-22T16:06:42.495Z,100555.34
2022-12-22T16:09:27.798Z,100555.34
2022-12-22T16:11:59.931Z,100554.47
2022-12-22T16:14:38.552Z,100562.28
2022-12-22T16:17:21.536Z,100555.34
2022-12-22T16:19:53.942Z,100551.88
2022-12-22T16:22:33.890Z,100545.78
2022-12-22T16:25:13.420Z,100554.44
2022-12-22T16:27:47.926Z,100552.69
2022-12-22T16:30:23.876Z,100548.34
2022-12-22T16:32:56.255Z,100548.38
2022-12-22T16:35:32.993Z,100545.75
2022-12-22T16:38:05.170Z,100554.47
2022-12-22T16:40:44.763Z,100549.22
2022-12-22T16:46:22.396Z,100552.69
2022-12-22T16:48:59.394Z,100552.69
2022-12-22T16:51:34.370Z,100550.97
2022-12-22T16:54:06.563Z,100544.00
2022-12-22T16:56:39.053Z,100543.16
2022-12-22T16:59:11.129Z,100536.19
2022-12-22T17:01:53.276Z,100541.41
2022-12-22T17:04:30.563Z,100541.41
2022-12-22T17:07:03.031Z,100544.00
2022-12-22T17:09:46.862Z,100538.84
2022-12-22T17:12:28.302Z,100537.94
2022-12-22T17:15:01.755Z,100531.88
2022-12-22T17:17:40.175Z,100536.22
2022-12-22T17:20:18.188Z,100536.22
2022-12-22T17:22:59.175Z,100531.00
2022-12-22T17:25:31.669Z,100531.88
2022-12-22T17:28:03.686Z,100531.88
2022-12-22T17:30:35.841Z,100525.78
2022-12-22T17:33:17.510Z,100520.59
2022-12-22T17:35:49.510Z,100517.13
2022-12-22T17:38:23.065Z,100524.06
2022-12-22T17:40:56.999Z,100518.00
2022-12-22T17:43:29.003Z,100518.84
2022-12-22T17:46:01.305Z,100510.19
2022-12-22T17:48:33.252Z,100515.38
2022-12-22T17:51:05.359Z,100513.66
2022-12-22T17:53:40.887Z,100522.31
2022-12-22T17:56:22.703Z,100518.84
2022-12-22T17:58:54.991Z,100516.25
2022-12-22T18:01:32.493Z,100523.19
2022-12-22T18:04:04.943Z,100516.25
2022-12-22T18:06:39.350Z,100506.69
2022-12-22T18:09:21.198Z,100508.44
2022-12-22T18:11:54.163Z,100502.38
2022-12-22T18:14:27.570Z,100499.78
2022-12-22T18:16:59.502Z,100503.25
2022-12-22T18:19:31.590Z,100505.84
2022-12-22T18:22:03.599Z,100504.97
2022-12-22T18:24:35.614Z,100498.03
2022-12-22T18:27:13.850Z,100499.78
2022-12-22T18:29:49.361Z,100498.03
2022-12-22T18:32:27.434Z,100501.50
2022-12-22T18:34:59.894Z,100484.16
2022-12-22T18:37:32.054Z,100491.97
2022-12-22T18:40:04.791Z,100489.34
2022-12-22T18:42:36.767Z,100487.63
2022-12-22T18:45:15.025Z,100485.88
2022-12-22T18:47:47.177Z,100488.50
2022-12-22T18:50:23.806Z,100475.47
2022-12-22T18:53:02.658Z,100472.00
2022-12-22T18:55:35.608Z,100470.25
2022-12-22T18:58:14.600Z,100465.94
2022-12-22T19:00:47.213Z,100468.53
2022-12-22T19:03:23.613Z,100460.75
2022-12-22T19:05:56.160Z,100462.44
2022-12-22T19:08:31.526Z,100465.06
2022-12-22T19:11:07.279Z,100458.13
2022-12-22T19:13:44.850Z,100468.53
2022-12-22T19:16:21.542Z,100462.47
2022-12-22T19:18:53.750Z,100459.84
2022-12-22T19:21:26.017Z,100463.31
2022-12-22T19:23:58.048Z,100456.38
2022-12-22T19:26:30.043Z,100455.53
2022-12-22T19:29:02.259Z,100452.06
2022-12-22T19:31:37.479Z,100442.53
2022-12-22T19:34:19.504Z,100444.25
2022-12-22T19:36:51.562Z,100449.47
2022-12-22T19:39:23.494Z,100449.47
2022-12-22T19:41:55.583Z,100436.44
2022-12-22T19:44:30.459Z,100436.44
2022-12-22T19:47:02.870Z,100435.59
2022-12-22T19:49:35.179Z,100433.00
2022-12-22T19:52:10.133Z,100420.84
2022-12-22T19:54:42.121Z,100423.44
2022-12-22T19:57:20.604Z,100418.25
2022-12-22T19:59:54.330Z,100421.72
2022-12-22T20:02:30.665Z,100418.25
2022-12-22T20:05:02.877Z,100405.25
2022-12-22T20:07:37.097Z,100411.31
2022-12-22T20:10:09.929Z,100414.78
2022-12-22T20:12:46.531Z,100413.91
2022-12-22T20:15:24.389Z,100413.03
2022-12-22T20:17:58.307Z,100414.78
2022-12-22T20:20:36.876Z,100405.25
2022-12-22T20:23:18.401Z,100409.56
2022-12-22T20:25:59.961Z,100405.25
2022-12-22T20:28:38.874Z,100404.38
2022-12-22T20:31:14.349Z,100402.63
2022-12-22T20:33:46.694Z,100400.03
2022-12-22T20:36:31.986Z,100401.78
2022-12-22T20:39:13.410Z,100391.38
2022-12-22T20:41:52.285Z,100387.91
2022-12-22T20:44:25.277Z,100387.91
2022-12-22T20:46:57.263Z,100391.38
2022-12-22T20:49:29.399Z,100395.69
2022-12-22T20:52:01.335Z,100392.25
2022-12-22T20:54:33.335Z,100387.03
2022-12-22T20:57:05.648Z,100387.91
2022-12-22T20:59:37.605Z,100386.16
2022-12-22T21:02:28.446Z,100380.97
2022-12-22T21:05:00.890Z,100377.50
2022-12-22T21:07:32.826Z,100375.75
2022-12-22T21:10:05.535Z,100367.94
2022-12-22T21:12:37.745Z,100358.41
2022-12-22T21:15:22.137Z,100359.28
2022-12-22T21:17:58.540Z,100357.53
2022-12-22T21:20:31.823Z,100362.75
2022-12-22T21:23:03.771Z,100368.81
2022-12-22T21:25:36.404Z,100363.63
2022-12-22T21:28:09.634Z,100360.16
2022-12-22T21:30:41.838Z,100358.44
2022-12-22T21:33:13.847Z,100361.88
2022-12-22T21:35:45.949Z,100365.38
2022-12-22T21:38:20.948Z,100361.91
2022-12-22T21:40:52.971Z,100355.81
2022-12-22T21:43:25.555Z,100351.47
2022-12-22T21:45:57.579Z,100353.22
2022-12-22T21:48:29.773Z,100359.28
2022-12-22T21:51:01.724Z,100355.81
2022-12-22T21:53:33.776Z,100357.53
2022-12-22T21:56:17.520Z,100353.22
2022-12-22T21:58:49.437Z,100347.13
2022-12-22T22:01:21.446Z,100345.41
2022-12-22T22:03:53.500Z,100342.81
2022-12-22T22:06:25.663Z,100347.16
2022-12-22T22:08:57.632Z,100344.56
2022-12-22T22:11:29.675Z,100339.34
2022-12-22T22:14:01.668Z,100338.47
2022-12-22T22:16:33.662Z,100336.75
2022-12-22T22:19:05.687Z,100332.41
2022-12-22T22:21:37.632Z,100332.41
2022-12-22T22:24:09.633Z,100328.06
2022-12-22T22:26:44.865Z,100326.34
2022-12-22T22:29:16.899Z,100324.63
2022-12-22T22:31:48.987Z,100332.41
2022-12-22T22:34:21.024Z,100336.75
2022-12-22T22:36:53.016Z,100334.13
2022-12-22T22:39:25.081Z,100331.53
2022-12-22T22:41:57.064Z,100318.53
2022-12-22T22:44:29.014Z,100315.06
2022-12-22T22:47:01.102Z,100311.59
2022-12-22T22:49:33.075Z,100313.34
2022-12-22T22:52:05.220Z,100315.94
2022-12-22T22:54:37.248Z,100310.72
2022-12-22T22:57:09.234Z,100310.72
2022-12-22T22:59:41.193Z,100305.53
2022-12-22T23:02:16.322Z,100301.19
2022-12-22T23:04:48.402Z,100305.53
2022-12-22T23:07:20.403Z,100301.19
2022-12-22T23:09:52.368Z,100300.34
2022-12-22T23:12:24.525Z,100298.59
2022-12-22T23:14:56.531Z,100291.66
2022-12-22T23:17:29.432Z,100297.75
2022-12-22T23:20:01.387Z,100294.28
2022-12-22T23:22:33.370Z,100295.13
2022-12-22T23:25:05.727Z,100298.59
2022-12-22T23:27:37.712Z,100293.41
2022-12-22T23:30:10.575Z,100290.81
2022-12-22T23:32:42.601Z,100293.41
2022-12-22T23:35:14.621Z,100294.25
2022-12-22T23:37:46.575Z,100285.59
2022-12-22T23:40:50.493Z,100288.19
2022-12-22T23:43:12.516Z,100274.34
2022-12-22T23:45:44.512Z,100276.06
2022-12-22T23:48:16.563Z,100276.06
2022-12-22T23:50:49.791Z,100274.34
2022-12-22T23:53:22.214Z,100274.34
2022-12-22T23:55:54.154Z,100274.34
2022-12-22T23:58:26.341Z,100262.19
